createdAt,value
2017-08-14T00:00:44.932Z,14.31
2017-08-14T00:01:44.915Z,14.37
2017-08-14T00:02:45.230Z,14.32
2017-08-14T00:03:44.893Z,14.27
2017-08-14T00:04:44.882Z,14.24
2017-08-14T00:05:44.869Z,14.28
2017-08-14T00:06:44.858Z,14.2
2017-08-14T00:07:45.157Z,14.19
2017-08-14T00:08:44.522Z,14.13
2017-08-14T00:09:44.861Z,14.27
2017-08-14T00:10:44.804Z,14.24
2017-08-14T00:11:45.096Z,14.12
2017-08-14T00:12:45.086Z,14.09
2017-08-14T00:13:44.759Z,14.17
2017-08-14T00:14:44.754Z,14.17
2017-08-14T00:15:44.740Z,14.2
2017-08-14T00:16:45.037Z,14.19
2017-08-14T00:17:45.017Z,14.06
2017-08-14T00:18:45.006Z,14.1
2017-08-14T00:19:44.993Z,14.1
2017-08-14T00:20:44.669Z,14.14
2017-08-14T00:21:44.340Z,14.07
2017-08-14T00:22:44.635Z,14.12
2017-08-14T00:23:44.634Z,14.13
2017-08-14T00:24:44.927Z,14.09
2017-08-14T00:25:44.608Z,14.02
2017-08-14T00:26:44.586Z,14.06
2017-08-14T00:27:44.890Z,14.04
2017-08-14T00:28:44.564Z,14.02
2017-08-14T00:29:44.242Z,13.91
2017-08-14T00:30:44.538Z,13.92
2017-08-14T00:31:44.523Z,13.95
2017-08-14T00:32:44.510Z,13.95
2017-08-14T00:33:44.519Z,13.94
2017-08-14T00:34:44.801Z,13.94
2017-08-14T00:35:44.482Z,13.88
2017-08-14T00:36:44.766Z,13.91
2017-08-14T00:37:44.758Z,13.84
2017-08-14T00:38:44.432Z,13.8
2017-08-14T00:39:44.728Z,13.77
2017-08-14T00:40:44.092Z,13.83
2017-08-14T00:41:44.080Z,13.83
2017-08-14T00:42:44.694Z,13.81
2017-08-14T00:43:44.053Z,13.84
2017-08-14T00:44:44.668Z,13.77
2017-08-14T00:45:44.349Z,13.79
2017-08-14T00:46:44.327Z,13.91
2017-08-14T00:47:43.995Z,13.83
2017-08-14T00:48:44.497Z,13.79
2017-08-14T00:49:44.283Z,13.81
2017-08-14T00:50:43.961Z,13.79
2017-08-14T00:51:43.956Z,13.8
2017-08-14T00:52:43.934Z,13.81
2017-08-14T00:53:44.544Z,13.81
2017-08-14T00:54:43.903Z,13.84
2017-08-14T00:55:44.203Z,13.79
2017-08-14T00:56:43.877Z,13.77
2017-08-14T00:57:44.492Z,13.8
2017-08-14T00:58:44.165Z,13.8
2017-08-14T00:59:44.154Z,13.83
2017-08-14T01:00:44.151Z,13.8
2017-08-14T01:01:44.437Z,13.79
2017-08-14T01:02:44.424Z,13.8
2017-08-14T01:03:44.415Z,13.88
2017-08-14T01:04:44.094Z,13.81
2017-08-14T01:05:44.387Z,13.84
2017-08-14T01:06:44.059Z,13.87
2017-08-14T01:07:44.357Z,13.94
2017-08-14T01:08:43.731Z,13.77
2017-08-14T01:09:44.332Z,13.91
2017-08-14T01:10:44.002Z,13.87
2017-08-14T01:11:44.304Z,13.77
2017-08-14T01:12:43.977Z,13.81
2017-08-14T01:13:43.965Z,13.81
2017-08-14T01:14:44.270Z,13.83
2017-08-14T01:15:44.253Z,13.83
2017-08-14T01:16:43.928Z,13.92
2017-08-14T01:17:44.222Z,13.89
2017-08-14T01:18:44.226Z,13.77
2017-08-14T01:19:43.889Z,13.79
2017-08-14T01:20:44.189Z,13.81
2017-08-14T01:21:43.857Z,13.77
2017-08-14T01:22:44.157Z,13.83
2017-08-14T01:23:44.139Z,13.91
2017-08-14T01:24:44.148Z,13.8
2017-08-14T01:25:43.853Z,13.79
2017-08-14T01:26:43.792Z,13.81
2017-08-14T01:27:44.113Z,13.81
2017-08-14T01:28:43.768Z,13.89
2017-08-14T01:29:43.756Z,13.81
2017-08-14T01:30:44.098Z,13.81
2017-08-14T01:31:43.722Z,13.8
2017-08-14T01:32:43.401Z,13.81
2017-08-14T01:33:43.725Z,13.79
2017-08-14T01:34:43.998Z,13.79
2017-08-14T01:35:43.989Z,13.77
2017-08-14T01:36:43.981Z,13.83
2017-08-14T01:37:43.954Z,13.87
2017-08-14T01:38:43.626Z,13.8
2017-08-14T01:39:43.615Z,13.84
2017-08-14T01:40:43.916Z,13.8
2017-08-14T01:41:43.804Z,13.87
2017-08-14T01:42:43.575Z,13.79
2017-08-14T01:43:43.881Z,13.88
2017-08-14T01:44:43.859Z,13.83
2017-08-14T01:45:43.851Z,13.73
2017-08-14T01:46:43.832Z,13.87
2017-08-14T01:47:43.516Z,13.71
2017-08-14T01:48:43.813Z,13.73
2017-08-14T01:49:43.788Z,13.71
2017-08-14T01:50:43.780Z,13.73
2017-08-14T01:51:43.143Z,13.76
2017-08-14T01:52:43.440Z,13.74
2017-08-14T01:53:43.432Z,13.63
2017-08-14T01:54:43.724Z,13.7
2017-08-14T01:55:43.405Z,13.71
2017-08-14T01:56:43.387Z,13.77
2017-08-14T01:57:43.059Z,13.7
2017-08-14T01:58:43.361Z,13.67
2017-08-14T01:59:43.349Z,13.83
2017-08-14T02:00:43.649Z,13.83
2017-08-14T02:01:43.320Z,13.73
2017-08-14T02:02:43.623Z,13.76
2017-08-14T02:03:43.291Z,13.74
2017-08-14T02:04:43.279Z,13.83
2017-08-14T02:05:43.318Z,13.84
2017-08-14T02:06:43.250Z,13.87
2017-08-14T02:07:43.237Z,13.8
2017-08-14T02:08:43.224Z,13.83
2017-08-14T02:09:43.216Z,13.81
2017-08-14T02:10:43.196Z,13.83
2017-08-14T02:11:43.493Z,13.84
2017-08-14T02:12:43.174Z,13.81
2017-08-14T02:13:42.846Z,13.87
2017-08-14T02:14:43.144Z,13.74
2017-08-14T02:15:43.453Z,13.83
2017-08-14T02:16:43.116Z,13.79
2017-08-14T02:17:43.103Z,13.76
2017-08-14T02:18:43.407Z,13.87
2017-08-14T02:19:43.078Z,13.8
2017-08-14T02:20:43.063Z,13.77
2017-08-14T02:21:43.048Z,13.87
2017-08-14T02:22:43.354Z,13.83
2017-08-14T02:23:43.030Z,13.8
2017-08-14T02:24:43.320Z,13.88
2017-08-14T02:25:42.996Z,13.8
2017-08-14T02:26:42.982Z,13.88
2017-08-14T02:27:43.287Z,13.71
2017-08-14T02:28:42.954Z,13.74
2017-08-14T02:29:43.250Z,13.76
2017-08-14T02:30:42.933Z,13.76
2017-08-14T02:31:43.234Z,13.74
2017-08-14T02:32:43.217Z,13.71
2017-08-14T02:33:43.216Z,13.61
2017-08-14T02:34:42.875Z,13.65
2017-08-14T02:35:42.858Z,13.62
2017-08-14T02:36:43.162Z,13.56
2017-08-14T02:37:42.837Z,13.59
2017-08-14T02:38:43.141Z,13.49
2017-08-14T02:39:42.809Z,13.49
2017-08-14T02:40:42.510Z,13.49
2017-08-14T02:41:42.780Z,13.52
2017-08-14T02:42:42.765Z,13.43
2017-08-14T02:43:42.751Z,13.44
2017-08-14T02:44:43.051Z,13.44
2017-08-14T02:45:42.728Z,13.46
2017-08-14T02:46:42.768Z,13.32
2017-08-14T02:47:42.701Z,13.33
2017-08-14T02:48:42.378Z,13.37
2017-08-14T02:49:42.675Z,13.4
2017-08-14T02:50:42.968Z,13.43
2017-08-14T02:51:42.645Z,13.38
2017-08-14T02:52:42.331Z,13.37
2017-08-14T02:53:42.305Z,13.32
2017-08-14T02:54:42.601Z,13.32
2017-08-14T02:55:42.277Z,13.32
2017-08-14T02:56:42.886Z,13.3
2017-08-14T02:57:42.556Z,13.3
2017-08-14T02:58:42.546Z,13.37
2017-08-14T02:59:42.845Z,13.27
2017-08-14T03:00:42.516Z,13.3
2017-08-14T03:01:42.559Z,13.3
2017-08-14T03:02:42.803Z,13.29
2017-08-14T03:03:42.798Z,13.22
2017-08-14T03:04:42.158Z,13.2
2017-08-14T03:05:42.765Z,13.3
2017-08-14T03:06:42.748Z,13.27
2017-08-14T03:07:42.424Z,13.32
2017-08-14T03:08:42.409Z,13.24
2017-08-14T03:09:42.391Z,13.29
2017-08-14T03:10:42.693Z,13.29
2017-08-14T03:11:42.054Z,13.24
2017-08-14T03:12:42.350Z,13.25
2017-08-14T03:13:42.649Z,13.24
2017-08-14T03:14:42.334Z,13.21
2017-08-14T03:15:42.621Z,13.17
2017-08-14T03:16:42.003Z,13.14
2017-08-14T03:17:42.609Z,13.14
2017-08-14T03:18:41.956Z,13.21
2017-08-14T03:19:41.949Z,13.18
2017-08-14T03:20:42.561Z,13.21
2017-08-14T03:21:42.237Z,13.25
2017-08-14T03:22:42.528Z,13.22
2017-08-14T03:23:41.898Z,13.22
2017-08-14T03:24:42.502Z,13.15
2017-08-14T03:25:42.183Z,13.17
2017-08-14T03:26:42.165Z,13.15
2017-08-14T03:27:42.144Z,13.17
2017-08-14T03:28:42.151Z,13.14
2017-08-14T03:29:42.427Z,13.21
2017-08-14T03:30:42.126Z,13.21
2017-08-14T03:31:42.401Z,13.21
2017-08-14T03:32:42.395Z,13.11
2017-08-14T03:33:42.064Z,13.06
2017-08-14T03:34:42.054Z,13.21
2017-08-14T03:35:42.038Z,13.2
2017-08-14T03:36:42.336Z,13.18
2017-08-14T03:37:42.319Z,13.18
2017-08-14T03:38:41.997Z,13.09
2017-08-14T03:39:41.977Z,13.09
2017-08-14T03:40:41.987Z,13.06
2017-08-14T03:41:42.471Z,13.14
2017-08-14T03:42:41.623Z,13.04
2017-08-14T03:43:41.934Z,13.03
2017-08-14T03:44:41.906Z,13
2017-08-14T03:45:42.211Z,12.97
2017-08-14T03:46:42.193Z,13.09
2017-08-14T03:47:41.552Z,13
2017-08-14T03:48:42.171Z,13
2017-08-14T03:49:41.849Z,12.96
2017-08-14T03:50:41.514Z,13.03
2017-08-14T03:51:42.127Z,13.03
2017-08-14T03:52:41.799Z,13.02
2017-08-14T03:53:41.785Z,12.97
2017-08-14T03:54:42.087Z,13
2017-08-14T03:55:41.760Z,12.97
2017-08-14T03:56:41.744Z,12.99
2017-08-14T03:57:41.732Z,12.95
2017-08-14T03:58:41.712Z,13.02
2017-08-14T03:59:41.702Z,12.99
2017-08-14T04:00:41.690Z,13.09
2017-08-14T04:01:41.672Z,13.09
2017-08-14T04:02:41.656Z,13.07
2017-08-14T04:03:41.662Z,13.03
2017-08-14T04:04:41.629Z,13.04
2017-08-14T04:05:41.616Z,13.09
2017-08-14T04:06:41.292Z,13.03
2017-08-14T04:07:41.909Z,13.07
2017-08-14T04:08:41.582Z,13.03
2017-08-14T04:09:41.870Z,13
2017-08-14T04:10:41.549Z,12.97
2017-08-14T04:11:41.529Z,12.96
2017-08-14T04:12:41.839Z,12.95
2017-08-14T04:13:41.826Z,12.92
2017-08-14T04:14:41.177Z,12.99
2017-08-14T04:15:41.164Z,13.04
2017-08-14T04:16:41.774Z,12.99
2017-08-14T04:17:41.758Z,12.95
2017-08-14T04:18:41.434Z,12.96
2017-08-14T04:19:41.728Z,12.99
2017-08-14T04:20:41.717Z,12.97
2017-08-14T04:21:41.389Z,12.93
2017-08-14T04:22:41.377Z,12.99
2017-08-14T04:23:41.368Z,12.96
2017-08-14T04:24:41.348Z,12.99
2017-08-14T04:25:41.658Z,12.95
2017-08-14T04:26:41.635Z,12.99
2017-08-14T04:27:41.668Z,12.97
2017-08-14T04:28:41.292Z,12.96
2017-08-14T04:29:41.283Z,12.96
2017-08-14T04:30:41.590Z,12.99
2017-08-14T04:31:41.563Z,12.97
2017-08-14T04:32:41.242Z,12.99
2017-08-14T04:33:40.924Z,12.96
2017-08-14T04:34:41.212Z,12.96
2017-08-14T04:35:41.191Z,13
2017-08-14T04:36:41.492Z,13
2017-08-14T04:37:41.484Z,12.97
2017-08-14T04:38:41.151Z,12.96
2017-08-14T04:39:41.450Z,12.99
2017-08-14T04:40:41.437Z,12.99
2017-08-14T04:41:41.108Z,13
2017-08-14T04:42:41.421Z,13
2017-08-14T04:43:41.084Z,13.02
2017-08-14T04:44:41.377Z,13.06
2017-08-14T04:45:41.052Z,12.99
2017-08-14T04:46:41.037Z,13.11
2017-08-14T04:47:41.338Z,13.09
2017-08-14T04:48:41.324Z,13.06
2017-08-14T04:49:41.307Z,13.09
2017-08-14T04:50:40.984Z,13.04
2017-08-14T04:51:41.281Z,13.12
2017-08-14T04:52:41.005Z,13.02
2017-08-14T04:53:41.254Z,13.06
2017-08-14T04:54:41.240Z,13.12
2017-08-14T04:55:41.222Z,13.12
2017-08-14T04:56:40.898Z,13.04
2017-08-14T04:57:40.882Z,13.12
2017-08-14T04:58:40.875Z,13.04
2017-08-14T04:59:40.861Z,13.18
2017-08-14T05:00:40.542Z,13.09
2017-08-14T05:01:40.833Z,13.09
2017-08-14T05:02:40.814Z,13.07
2017-08-14T05:03:40.491Z,13.09
2017-08-14T05:04:40.785Z,13.11
2017-08-14T05:05:40.780Z,13.22
2017-08-14T05:06:41.073Z,13.15
2017-08-14T05:07:41.060Z,13.22
2017-08-14T05:08:41.052Z,13.29
2017-08-14T05:09:40.721Z,13.32
2017-08-14T05:10:40.709Z,13.24
2017-08-14T05:11:41.014Z,13.25
2017-08-14T05:12:40.674Z,13.3
2017-08-14T05:13:40.978Z,13.25
2017-08-14T05:14:40.647Z,13.33
2017-08-14T05:15:40.956Z,13.37
2017-08-14T05:16:40.935Z,13.32
2017-08-14T05:17:40.920Z,13.43
2017-08-14T05:18:40.593Z,13.4
2017-08-14T05:19:40.890Z,13.41
2017-08-14T05:20:40.875Z,13.41
2017-08-14T05:21:40.867Z,13.41
2017-08-14T05:22:40.227Z,13.44
2017-08-14T05:23:40.836Z,13.46
2017-08-14T05:24:40.202Z,13.54
2017-08-14T05:25:40.505Z,13.55
2017-08-14T05:26:40.487Z,13.51
2017-08-14T05:27:40.469Z,13.56
2017-08-14T05:28:40.766Z,13.63
2017-08-14T05:29:40.441Z,13.58
2017-08-14T05:30:40.741Z,13.63
2017-08-14T05:31:40.730Z,13.65
2017-08-14T05:32:40.710Z,13.79
2017-08-14T05:33:40.705Z,13.71
2017-08-14T05:34:40.685Z,13.77
2017-08-14T05:35:40.364Z,13.77
2017-08-14T05:36:40.661Z,13.79
2017-08-14T05:37:40.651Z,13.87
2017-08-14T05:38:40.630Z,13.8
2017-08-14T05:39:40.618Z,13.81
2017-08-14T05:40:40.604Z,13.88
2017-08-14T05:41:40.682Z,13.81
2017-08-14T05:42:40.576Z,13.89
2017-08-14T05:43:40.256Z,13.95
2017-08-14T05:44:40.239Z,13.96
2017-08-14T05:45:39.913Z,14.04
2017-08-14T05:46:40.215Z,13.94
2017-08-14T05:47:40.508Z,14.07
2017-08-14T05:48:40.504Z,14.04
2017-08-14T05:49:40.173Z,14.06
2017-08-14T05:50:40.163Z,14.2
2017-08-14T05:51:40.467Z,14.19
2017-08-14T05:52:40.448Z,14.24
2017-08-14T05:53:40.440Z,14.27
2017-08-14T05:54:40.428Z,14.29
2017-08-14T05:55:40.091Z,14.31
2017-08-14T05:56:40.086Z,14.34
2017-08-14T05:57:40.071Z,14.32
2017-08-14T05:58:40.054Z,14.42
2017-08-14T05:59:40.050Z,14.44
2017-08-14T06:00:40.028Z,14.46
2017-08-14T06:01:40.329Z,14.5
2017-08-14T06:02:40.317Z,14.49
2017-08-14T06:03:40.354Z,14.54
2017-08-14T06:04:39.973Z,14.53
2017-08-14T06:05:39.698Z,14.52
2017-08-14T06:06:39.638Z,14.54
2017-08-14T06:07:40.255Z,14.68
2017-08-14T06:08:39.916Z,14.68
2017-08-14T06:09:40.224Z,14.69
2017-08-14T06:10:39.889Z,14.74
2017-08-14T06:11:39.889Z,14.68
2017-08-14T06:12:39.872Z,14.71
2017-08-14T06:13:40.167Z,14.75
2017-08-14T06:14:39.846Z,14.81
2017-08-14T06:15:40.149Z,14.86
2017-08-14T06:16:40.130Z,14.91
2017-08-14T06:17:39.801Z,14.88
2017-08-14T06:18:40.105Z,14.94
2017-08-14T06:19:39.779Z,15.03
2017-08-14T06:20:40.076Z,14.99
2017-08-14T06:21:40.072Z,15.05
2017-08-14T06:22:40.052Z,15.03
2017-08-14T06:23:39.410Z,15.13
2017-08-14T06:24:40.053Z,15.15
2017-08-14T06:25:40.018Z,15.11
2017-08-14T06:26:39.690Z,15.12
2017-08-14T06:27:40.002Z,15.17
2017-08-14T06:28:39.667Z,15.28
2017-08-14T06:29:39.961Z,15.26
2017-08-14T06:30:39.641Z,15.33
2017-08-14T06:31:39.628Z,15.2
2017-08-14T06:32:39.927Z,15.33
2017-08-14T06:33:39.914Z,15.36
2017-08-14T06:34:39.907Z,15.42
2017-08-14T06:35:39.271Z,15.28
2017-08-14T06:36:39.880Z,15.45
2017-08-14T06:37:39.860Z,15.46
2017-08-14T06:38:39.853Z,15.45
2017-08-14T06:39:39.528Z,15.46
2017-08-14T06:40:39.517Z,15.49
2017-08-14T06:41:39.501Z,15.54
2017-08-14T06:42:39.486Z,15.56
2017-08-14T06:43:39.475Z,15.64
2017-08-14T06:44:39.177Z,15.54
2017-08-14T06:45:39.762Z,15.64
2017-08-14T06:46:39.442Z,15.66
2017-08-14T06:47:39.121Z,15.61
2017-08-14T06:48:39.414Z,15.75
2017-08-14T06:49:39.408Z,15.7
2017-08-14T06:50:39.700Z,15.76
2017-08-14T06:51:39.065Z,15.82
2017-08-14T06:52:39.377Z,15.88
2017-08-14T06:53:39.355Z,15.81
2017-08-14T06:54:39.339Z,15.88
2017-08-14T06:55:39.330Z,15.92
2017-08-14T06:56:39.315Z,15.93
2017-08-14T06:57:39.306Z,16
2017-08-14T06:58:39.604Z,16.03
2017-08-14T06:59:39.340Z,16.11
2017-08-14T07:00:39.577Z,16.11
2017-08-14T07:01:39.273Z,16.15
2017-08-14T07:02:39.240Z,16.16
2017-08-14T07:03:38.921Z,16.2
2017-08-14T07:04:39.279Z,16.3
2017-08-14T07:05:39.213Z,16.27
2017-08-14T07:06:39.534Z,16.34
2017-08-14T07:07:38.869Z,16.42
2017-08-14T07:08:39.498Z,16.41
2017-08-14T07:09:39.472Z,16.45
2017-08-14T07:10:39.151Z,16.45
2017-08-14T07:11:39.455Z,16.49
2017-08-14T07:12:39.130Z,16.55
2017-08-14T07:13:38.809Z,16.6
2017-08-14T07:14:39.099Z,16.56
2017-08-14T07:15:39.087Z,16.74
2017-08-14T07:16:39.388Z,16.77
2017-08-14T07:17:38.754Z,16.74
2017-08-14T07:18:39.375Z,16.8
2017-08-14T07:19:39.045Z,16.8
2017-08-14T07:20:39.034Z,16.86
2017-08-14T07:21:38.708Z,16.85
2017-08-14T07:22:39.008Z,16.77
2017-08-14T07:23:39.001Z,16.75
2017-08-14T07:24:39.351Z,16.85
2017-08-14T07:25:39.290Z,16.96
2017-08-14T07:26:39.271Z,16.89
2017-08-14T07:27:38.640Z,17.03
2017-08-14T07:28:39.264Z,17.07
2017-08-14T07:29:39.245Z,16.98
2017-08-14T07:30:38.916Z,17.08
2017-08-14T07:31:38.904Z,17.14
2017-08-14T07:32:39.213Z,17.15
2017-08-14T07:33:38.884Z,17.08
2017-08-14T07:34:38.871Z,17.15
2017-08-14T07:35:39.168Z,17.23
2017-08-14T07:36:38.862Z,17.25
2017-08-14T07:37:39.150Z,17.28
2017-08-14T07:38:38.826Z,17.3
2017-08-14T07:39:39.125Z,17.33
2017-08-14T07:40:38.492Z,17.36
2017-08-14T07:41:39.104Z,17.28
2017-08-14T07:42:38.783Z,17.4
2017-08-14T07:43:38.800Z,17.38
2017-08-14T07:44:38.759Z,17.54
2017-08-14T07:45:38.779Z,17.43
2017-08-14T07:46:38.736Z,17.51
2017-08-14T07:47:38.738Z,17.44
2017-08-14T07:48:38.718Z,17.55
2017-08-14T07:49:39.019Z,17.51
2017-08-14T07:50:38.696Z,17.55
2017-08-14T07:51:38.997Z,17.69
2017-08-14T07:52:38.985Z,17.7
2017-08-14T07:53:38.357Z,17.69
2017-08-14T07:54:38.340Z,17.73
2017-08-14T07:55:38.952Z,17.74
2017-08-14T07:56:38.328Z,17.76
2017-08-14T07:57:38.618Z,17.78
2017-08-14T07:58:38.605Z,17.84
2017-08-14T07:59:38.599Z,17.85
2017-08-14T08:00:38.596Z,17.87
2017-08-14T08:01:38.891Z,17.91
2017-08-14T08:02:38.877Z,17.92
2017-08-14T08:03:38.866Z,18.07
2017-08-14T08:04:38.547Z,18.13
2017-08-14T08:05:38.846Z,18.06
2017-08-14T08:06:38.839Z,18.06
2017-08-14T08:07:38.518Z,18.12
2017-08-14T08:08:38.817Z,18.1
2017-08-14T08:09:38.805Z,18.18
2017-08-14T08:10:38.792Z,18.25
2017-08-14T08:11:38.467Z,18.24
2017-08-14T08:12:38.774Z,18.28
2017-08-14T08:13:38.135Z,18.25
2017-08-14T08:14:38.444Z,18.4
2017-08-14T08:15:38.735Z,18.39
2017-08-14T08:16:38.108Z,18.5
2017-08-14T08:17:38.717Z,18.5
2017-08-14T08:18:38.707Z,18.55
2017-08-14T08:19:38.384Z,19.01
2017-08-14T08:20:38.119Z,20.03
2017-08-14T08:21:38.373Z,20.93
2017-08-14T08:22:38.360Z,21.97
2017-08-14T08:23:38.663Z,22.83
2017-08-14T08:24:38.661Z,23.49
2017-08-14T08:25:38.652Z,24.2
2017-08-14T08:26:38.332Z,24.63
2017-08-14T08:27:38.330Z,25
2017-08-14T08:28:38.631Z,24.77
2017-08-14T08:29:38.626Z,24.6
2017-08-14T08:30:38.625Z,24.04
2017-08-14T08:31:37.997Z,23.76
2017-08-14T08:32:38.305Z,23.61
2017-08-14T08:33:38.295Z,23.47
2017-08-14T08:34:38.312Z,23.49
2017-08-14T08:35:38.292Z,23.57
2017-08-14T08:36:38.281Z,23.65
2017-08-14T08:37:38.591Z,23.52
2017-08-14T08:38:38.270Z,23.31
2017-08-14T08:39:38.582Z,23.09
2017-08-14T08:40:38.571Z,22.87
2017-08-14T08:41:38.290Z,22.9
2017-08-14T08:42:38.259Z,23.01
2017-08-14T08:43:38.272Z,23.09
2017-08-14T08:44:38.555Z,23.26
2017-08-14T08:45:38.600Z,23.38
2017-08-14T08:46:38.238Z,23.47
2017-08-14T08:47:38.539Z,23.77
2017-08-14T08:48:38.225Z,23.92
2017-08-14T08:49:38.215Z,24.2
2017-08-14T08:50:38.529Z,24.42
2017-08-14T08:51:38.514Z,24.32
2017-08-14T08:52:38.514Z,24.04
2017-08-14T08:53:38.198Z,23.85
2017-08-14T08:54:38.502Z,23.58
2017-08-14T08:55:38.493Z,23.42
2017-08-14T08:56:38.492Z,23.29
2017-08-14T08:57:38.169Z,23.12
2017-08-14T08:58:38.171Z,22.92
2017-08-14T08:59:38.469Z,23.01
2017-08-14T09:00:37.851Z,22.99
2017-08-14T09:01:38.148Z,22.99
2017-08-14T09:02:37.829Z,22.99
2017-08-14T09:03:38.456Z,22.87
2017-08-14T09:04:38.444Z,22.84
2017-08-14T09:05:38.124Z,22.8
2017-08-14T09:06:38.124Z,22.82
2017-08-14T09:07:38.443Z,22.84
2017-08-14T09:08:38.104Z,22.82
2017-08-14T09:09:38.409Z,22.74
2017-08-14T09:10:38.098Z,22.59
2017-08-14T09:11:37.776Z,22.44
2017-08-14T09:12:38.385Z,22.32
2017-08-14T09:13:38.075Z,22.27
2017-08-14T09:14:38.059Z,22.14
2017-08-14T09:15:38.051Z,22.07
2017-08-14T09:16:38.048Z,22.06
2017-08-14T09:17:38.352Z,21.95
2017-08-14T09:18:37.732Z,21.99
2017-08-14T09:19:38.027Z,22.01
2017-08-14T09:20:38.337Z,21.83
2017-08-14T09:21:38.326Z,21.9
2017-08-14T09:22:38.017Z,21.76
2017-08-14T09:23:38.002Z,21.81
2017-08-14T09:24:37.993Z,21.75
2017-08-14T09:25:38.298Z,21.75
2017-08-14T09:26:37.973Z,21.71
2017-08-14T09:27:38.287Z,21.83
2017-08-14T09:28:38.272Z,21.82
2017-08-14T09:29:38.275Z,21.75
2017-08-14T09:30:37.951Z,21.83
2017-08-14T09:31:37.942Z,21.94
2017-08-14T09:32:38.248Z,21.97
2017-08-14T09:33:37.929Z,22.06
2017-08-14T09:34:38.229Z,22.09
2017-08-14T09:35:37.914Z,22.09
2017-08-14T09:36:37.593Z,22.13
2017-08-14T09:37:38.215Z,22.16
2017-08-14T09:38:38.204Z,22.23
2017-08-14T09:39:37.897Z,22.2
2017-08-14T09:40:38.194Z,22.17
2017-08-14T09:41:37.612Z,22.04
2017-08-14T09:42:38.064Z,22.06
2017-08-14T09:43:38.167Z,22.1
2017-08-14T09:44:38.161Z,22.09
2017-08-14T09:45:37.886Z,22.09
2017-08-14T09:46:37.835Z,22.06
2017-08-14T09:47:37.828Z,22.1
2017-08-14T09:48:38.128Z,22.1
2017-08-14T09:49:38.122Z,22.06
2017-08-14T09:50:38.111Z,22.09
2017-08-14T09:51:37.846Z,22.22
2017-08-14T09:52:37.790Z,22.14
2017-08-14T09:53:38.092Z,22.17
2017-08-14T09:54:37.772Z,22.23
2017-08-14T09:55:38.079Z,22.17
2017-08-14T09:56:37.439Z,22.22
2017-08-14T09:57:38.069Z,22.2
2017-08-14T09:58:37.743Z,22.27
2017-08-14T09:59:38.048Z,22.27
2017-08-14T10:00:38.062Z,22.31
2017-08-14T10:01:37.978Z,22.34
2017-08-14T10:02:38.026Z,22.34
2017-08-14T10:03:37.712Z,22.34
2017-08-14T10:04:37.701Z,22.35
2017-08-14T10:05:37.691Z,22.34
2017-08-14T10:06:37.690Z,22.39
2017-08-14T10:07:38.003Z,22.38
2017-08-14T10:08:37.675Z,22.5
2017-08-14T10:09:37.663Z,22.46
2017-08-14T10:10:37.971Z,22.47
2017-08-14T10:11:37.652Z,22.59
2017-08-14T10:12:37.959Z,22.53
2017-08-14T10:13:37.948Z,22.6
2017-08-14T10:14:37.634Z,22.65
2017-08-14T10:15:37.304Z,22.67
2017-08-14T10:16:37.926Z,22.69
2017-08-14T10:17:37.924Z,22.71
2017-08-14T10:18:37.593Z,22.62
2017-08-14T10:19:37.903Z,22.65
2017-08-14T10:20:37.583Z,22.67
2017-08-14T10:21:37.629Z,22.78
2017-08-14T10:22:37.573Z,22.77
2017-08-14T10:23:37.872Z,22.83
2017-08-14T10:24:37.872Z,22.84
2017-08-14T10:25:37.866Z,22.83
2017-08-14T10:26:38.059Z,22.92
2017-08-14T10:27:37.850Z,22.89
2017-08-14T10:28:37.528Z,22.89
2017-08-14T10:29:37.209Z,22.92
2017-08-14T10:30:37.212Z,23.07
2017-08-14T10:31:37.816Z,23.19
2017-08-14T10:32:37.194Z,23.39
2017-08-14T10:33:37.818Z,23.68
2017-08-14T10:34:37.492Z,23.82
2017-08-14T10:35:37.796Z,24.17
2017-08-14T10:36:37.477Z,24.47
2017-08-14T10:37:37.793Z,24.83
2017-08-14T10:38:37.786Z,24.98
2017-08-14T10:39:37.466Z,25.07
2017-08-14T10:40:37.773Z,25.2
2017-08-14T10:41:37.763Z,25.3
2017-08-14T10:42:37.764Z,25.5
2017-08-14T10:43:37.761Z,25.64
2017-08-14T10:44:37.764Z,26.11
2017-08-14T10:45:37.137Z,26.44
2017-08-14T10:46:37.448Z,26.79
2017-08-14T10:47:37.752Z,27.16
2017-08-14T10:48:37.754Z,27.46
2017-08-14T10:49:37.434Z,27.54
2017-08-14T10:50:37.128Z,28.01
2017-08-14T10:51:37.746Z,28.36
2017-08-14T10:52:37.440Z,28.29
2017-08-14T10:53:37.757Z,28.26
2017-08-14T10:54:37.132Z,28.41
2017-08-14T10:55:37.749Z,28.88
2017-08-14T10:56:37.753Z,29.16
2017-08-14T10:57:37.444Z,29.55
2017-08-14T10:58:37.759Z,29.75
2017-08-14T10:59:37.755Z,29.96
2017-08-14T11:00:37.449Z,30.27
2017-08-14T11:01:37.454Z,30.37
2017-08-14T11:02:37.825Z,30.56
2017-08-14T11:03:37.459Z,30.62
2017-08-14T11:04:37.469Z,30.37
2017-08-14T11:05:37.467Z,30.3
2017-08-14T11:06:37.778Z,30.45
2017-08-14T11:07:37.788Z,30.46
2017-08-14T11:08:37.476Z,30.37
2017-08-14T11:09:37.801Z,30.29
2017-08-14T11:10:37.796Z,30.3
2017-08-14T11:11:37.802Z,30.36
2017-08-14T11:12:37.820Z,30.43
2017-08-14T11:13:37.589Z,30.56
2017-08-14T11:14:37.505Z,30.54
2017-08-14T11:15:37.519Z,30.62
2017-08-14T11:16:37.826Z,30.71
2017-08-14T11:17:37.837Z,30.91
2017-08-14T11:18:37.842Z,31.09
2017-08-14T11:19:37.846Z,31.31
2017-08-14T11:20:37.541Z,31.5
2017-08-14T11:21:37.548Z,31.45
2017-08-14T11:22:37.237Z,31.42
2017-08-14T11:23:37.874Z,31.5
2017-08-14T11:24:37.870Z,31.84
2017-08-14T11:25:37.901Z,31.82
2017-08-14T11:26:37.892Z,32
2017-08-14T11:27:37.584Z,32.17
2017-08-14T11:28:37.282Z,32.32
2017-08-14T11:29:37.909Z,32.52
2017-08-14T11:30:37.939Z,32.81
2017-08-14T11:31:37.919Z,32.88
2017-08-14T11:32:37.607Z,33.06
2017-08-14T11:33:37.940Z,33.19
2017-08-14T11:34:37.940Z,33.14
2017-08-14T11:35:37.320Z,33.11
2017-08-14T11:36:37.637Z,33.17
2017-08-14T11:37:37.650Z,33.07
2017-08-14T11:38:37.962Z,33.11
2017-08-14T11:39:37.677Z,33.3
2017-08-14T11:40:37.717Z,33.37
2017-08-14T11:41:37.680Z,33.11
2017-08-14T11:42:38.246Z,33.04
2017-08-14T11:43:37.687Z,33.13
2017-08-14T11:44:38.007Z,33.52
2017-08-14T11:45:38.010Z,33.49
2017-08-14T11:46:37.714Z,33.58
2017-08-14T11:47:37.717Z,33.48
2017-08-14T11:48:37.717Z,33.55
2017-08-14T11:49:38.043Z,33.48
2017-08-14T11:50:37.421Z,33.65
2017-08-14T11:51:38.058Z,33.71
2017-08-14T11:52:38.067Z,33.86
2017-08-14T11:53:38.066Z,33.94
2017-08-14T11:54:37.780Z,34.08
2017-08-14T11:55:38.083Z,33.86
2017-08-14T11:56:37.781Z,33.7
2017-08-14T11:57:38.101Z,33.97
2017-08-14T11:58:38.105Z,34.07
2017-08-14T11:59:37.808Z,33.71
2017-08-14T12:00:38.121Z,33.7
2017-08-14T12:01:38.136Z,33.63
2017-08-14T12:02:37.828Z,33.73
2017-08-14T12:03:38.206Z,33.6
2017-08-14T12:04:38.154Z,33.46
2017-08-14T12:05:38.155Z,33.33
2017-08-14T12:06:38.164Z,32.84
2017-08-14T12:07:38.171Z,32.4
2017-08-14T12:08:38.174Z,32
2017-08-14T12:09:37.868Z,31.65
2017-08-14T12:10:37.879Z,31.26
2017-08-14T12:11:37.881Z,30.83
2017-08-14T12:12:37.888Z,31.18
2017-08-14T12:13:38.218Z,31.67
2017-08-14T12:14:37.582Z,32.13
2017-08-14T12:15:37.907Z,32.24
2017-08-14T12:16:38.222Z,32.44
2017-08-14T12:17:37.599Z,32.39
2017-08-14T12:18:38.228Z,32.51
2017-08-14T12:19:38.233Z,32.64
2017-08-14T12:20:37.930Z,32.92
2017-08-14T12:21:38.248Z,32.93
2017-08-14T12:22:38.263Z,33.19
2017-08-14T12:23:38.269Z,33.63
2017-08-14T12:24:37.643Z,33.71
2017-08-14T12:25:37.953Z,33.01
2017-08-14T12:26:37.957Z,32.64
2017-08-14T12:27:37.965Z,32.13
2017-08-14T12:28:37.660Z,32.25
2017-08-14T12:29:37.973Z,32.43
2017-08-14T12:30:37.983Z,32.61
2017-08-14T12:31:38.301Z,33.03
2017-08-14T12:32:37.995Z,33.26
2017-08-14T12:33:37.994Z,33.07
2017-08-14T12:34:38.001Z,32.96
2017-08-14T12:35:38.319Z,33.03
2017-08-14T12:36:38.321Z,32.76
2017-08-14T12:37:38.328Z,32.39
2017-08-14T12:38:38.336Z,32.36
2017-08-14T12:39:38.028Z,32.48
2017-08-14T12:40:38.348Z,32.2
2017-08-14T12:41:38.349Z,32.05
2017-08-14T12:42:37.730Z,31.68
2017-08-14T12:43:38.558Z,31.3
2017-08-14T12:44:38.051Z,31.15
2017-08-14T12:45:38.368Z,31.33
2017-08-14T12:46:38.373Z,31.91
2017-08-14T12:47:38.376Z,32.17
2017-08-14T12:48:38.430Z,32.36
2017-08-14T12:49:38.067Z,32.84
2017-08-14T12:50:38.076Z,33.11
2017-08-14T12:51:38.391Z,33.49
2017-08-14T12:52:38.405Z,33.74
2017-08-14T12:53:38.091Z,33.6
2017-08-14T12:54:37.777Z,33.45
2017-08-14T12:55:38.408Z,33.9
2017-08-14T12:56:38.420Z,33.95